Air Resources Laboratory banner image
Air Resources Laboratory web site National Oceanic and Atmospheric Administration (NOAA)

vt metar


K1V4 191554Z AUTO 02/M05 A3033 RMK AO1 SLP286 T00221050=
KBTV 191554Z 20025G36KT 10SM FEW050 FEW120 BKN250 04/M05 A3029 RMK AO2 PK WND
 19036/1549 SLP262 ACSL S T00391050=
KDDH 191554Z AUTO 19010KT 10SM CLR 06/M04 A3036 RMK AO2 SLP291 T00561039=
KEFK 191555Z AUTO 19012G17KT 10SM CLR 03/M06 A3029 RMK AO2 T00251058=
KMPV 191551Z AUTO 17012G17KT 10SM CLR 01/M06 A3035 RMK AO2 SLP294 T00111056=
KMVL 191554Z AUTO 00000KT 10SM CLR 02/M06 A3030 RMK AO2 SLP274 T00221061=
KRUT 191556Z AUTO 17012KT 10SM CLR 05/M04 A3034 RMK AO2 SLP300 T00501044 $=
KVSF 191554Z AUTO 13007KT 10SM CLR 02/M05 A3040 RMK AO2 SLP304 T00171050=